createdAt,value
2022-10-14T00:01:12.672Z,15.00
2022-10-14T00:03:41.768Z,14.90
2022-10-14T00:06:15.253Z,14.90
2022-10-14T00:08:43.589Z,14.90
2022-10-14T00:11:12.891Z,14.90
2022-10-14T00:13:39.999Z,14.90
2022-10-14T00:16:14.680Z,14.80
2022-10-14T00:18:41.528Z,14.80
2022-10-14T00:21:09.157Z,14.90
2022-10-14T00:23:36.111Z,15.00
2022-10-14T00:26:03.613Z,15.00
2022-10-14T00:28:30.985Z,15.00
2022-10-14T00:31:00.936Z,15.10
2022-10-14T00:33:28.920Z,15.10
2022-10-14T00:36:01.671Z,15.10
2022-10-14T00:38:28.968Z,15.00
2022-10-14T00:40:56.271Z,15.00
2022-10-14T00:43:26.591Z,15.00
2022-10-14T00:45:53.436Z,14.90
2022-10-14T00:48:24.513Z,14.90
2022-10-14T00:50:55.597Z,15.00
2022-10-14T00:53:23.645Z,15.00
2022-10-14T00:55:50.616Z,15.10
2022-10-14T00:58:17.745Z,15.00
2022-10-14T01:00:44.466Z,15.00
2022-10-14T01:03:22.006Z,14.90
2022-10-14T01:05:55.462Z,14.90
2022-10-14T01:08:30.837Z,14.80
2022-10-14T01:11:15.553Z,14.80
2022-10-14T01:13:52.004Z,14.80
2022-10-14T01:16:35.666Z,14.80
2022-10-14T01:19:17.519Z,14.80
2022-10-14T01:22:07.378Z,14.80
2022-10-14T01:24:49.032Z,14.80
2022-10-14T01:27:42.420Z,14.80
2022-10-14T01:30:11.986Z,14.80
2022-10-14T01:32:47.863Z,14.80
2022-10-14T01:36:02.138Z,14.80
2022-10-14T01:38:54.106Z,14.90
2022-10-14T01:41:26.300Z,14.90
2022-10-14T01:43:55.949Z,15.00
2022-10-14T01:46:25.509Z,15.00
2022-10-14T01:48:58.805Z,15.00
2022-10-14T01:51:38.325Z,15.00
2022-10-14T01:54:13.103Z,14.90
2022-10-14T01:56:45.035Z,14.90
2022-10-14T01:59:15.112Z,14.90
2022-10-14T02:01:42.206Z,14.90
2022-10-14T02:04:17.824Z,14.90
2022-10-14T02:06:55.688Z,14.90
2022-10-14T02:09:48.944Z,14.90
2022-10-14T02:12:38.976Z,14.90
2022-10-14T02:15:19.932Z,14.80
2022-10-14T02:17:57.837Z,14.90
2022-10-14T02:20:33.856Z,14.90
2022-10-14T02:23:08.316Z,14.90
2022-10-14T02:25:39.636Z,14.90
2022-10-14T02:28:09.069Z,14.80
2022-10-14T02:30:41.625Z,14.90
2022-10-14T02:33:09.380Z,14.90
2022-10-14T02:35:38.710Z,15.00
2022-10-14T02:38:06.861Z,15.00
2022-10-14T02:40:45.490Z,15.00
2022-10-14T02:43:12.869Z,15.00
2022-10-14T02:45:41.694Z,15.10
2022-10-14T02:48:09.491Z,15.10
2022-10-14T02:50:36.683Z,15.00
2022-10-14T02:53:04.114Z,15.00
2022-10-14T02:55:31.031Z,15.00
2022-10-14T02:57:58.089Z,14.90
2022-10-14T03:00:24.750Z,15.00
2022-10-14T03:02:51.720Z,15.00
2022-10-14T03:05:18.518Z,15.10
2022-10-14T03:07:45.386Z,14.90
2022-10-14T03:10:12.094Z,15.00
2022-10-14T03:12:39.924Z,14.90
2022-10-14T03:15:07.648Z,14.90
2022-10-14T03:17:34.529Z,14.80
2022-10-14T03:20:01.847Z,14.80
2022-10-14T03:22:28.488Z,14.80
2022-10-14T03:24:56.403Z,14.90
2022-10-14T03:27:23.743Z,15.00
2022-10-14T03:29:50.483Z,14.90
2022-10-14T03:32:17.561Z,14.90
2022-10-14T03:34:44.573Z,14.90
2022-10-14T03:37:11.196Z,14.80
2022-10-14T03:39:38.009Z,14.80
2022-10-14T03:42:04.958Z,14.90
2022-10-14T03:44:32.165Z,14.90
2022-10-14T03:46:58.980Z,14.90
2022-10-14T03:49:25.696Z,15.00
2022-10-14T03:51:52.952Z,15.00
2022-10-14T03:54:21.349Z,15.00
2022-10-14T03:56:48.024Z,14.90
2022-10-14T03:59:15.065Z,14.90
2022-10-14T04:01:41.749Z,14.90
2022-10-14T04:04:08.791Z,14.80
2022-10-14T04:06:36.553Z,14.80
2022-10-14T04:09:04.108Z,14.70
2022-10-14T04:11:31.221Z,14.70
2022-10-14T04:13:59.288Z,14.80
2022-10-14T04:16:27.035Z,14.90
2022-10-14T04:18:54.289Z,15.00
2022-10-14T04:21:21.369Z,15.00
2022-10-14T04:23:48.428Z,14.90
2022-10-14T04:26:15.544Z,14.90
2022-10-14T04:28:42.724Z,15.00
2022-10-14T04:31:09.733Z,14.90
2022-10-14T04:33:36.724Z,14.80
2022-10-14T04:36:06.479Z,14.70
2022-10-14T04:38:33.278Z,14.90
2022-10-14T04:41:00.274Z,14.90
2022-10-14T04:43:27.284Z,14.80
2022-10-14T04:45:54.472Z,14.90
2022-10-14T04:48:21.677Z,14.80
2022-10-14T04:50:53.310Z,14.80
2022-10-14T04:53:22.461Z,14.80
2022-10-14T04:55:50.114Z,14.70
2022-10-14T04:58:17.126Z,14.70
2022-10-14T05:00:43.784Z,14.70
2022-10-14T05:03:10.821Z,14.70
2022-10-14T05:05:37.881Z,14.70
2022-10-14T05:08:05.348Z,14.60
2022-10-14T05:10:33.713Z,14.70
2022-10-14T05:13:04.121Z,14.70
2022-10-14T05:15:32.113Z,14.70
2022-10-14T05:17:59.073Z,14.70
2022-10-14T05:20:27.004Z,14.80
2022-10-14T05:22:56.084Z,14.80
2022-10-14T05:25:23.073Z,14.80
2022-10-14T05:27:50.976Z,14.80
2022-10-14T05:30:18.028Z,14.80
2022-10-14T05:32:45.013Z,14.80
2022-10-14T05:35:12.925Z,14.80
2022-10-14T05:37:40.142Z,14.80
2022-10-14T05:40:07.906Z,14.70
2022-10-14T05:42:34.946Z,14.70
2022-10-14T05:45:01.898Z,14.70
2022-10-14T05:47:28.965Z,14.80
2022-10-14T05:49:56.608Z,14.80
2022-10-14T05:52:23.865Z,14.80
2022-10-14T05:54:50.835Z,14.70
2022-10-14T05:57:17.448Z,14.50
2022-10-14T05:59:45.075Z,14.60
2022-10-14T06:02:17.661Z,14.60
2022-10-14T06:04:45.375Z,14.70
2022-10-14T06:07:28.270Z,14.70
2022-10-14T06:10:28.005Z,14.80
2022-10-14T06:12:56.746Z,14.80
2022-10-14T06:15:23.378Z,14.80
2022-10-14T06:17:52.167Z,14.60
2022-10-14T06:20:19.796Z,14.60
2022-10-14T06:22:48.440Z,14.70
2022-10-14T06:25:16.272Z,14.80
2022-10-14T06:27:44.211Z,14.70
2022-10-14T06:30:12.566Z,14.70
2022-10-14T06:32:40.221Z,14.70
2022-10-14T06:35:08.685Z,14.70
2022-10-14T06:37:46.606Z,14.80
2022-10-14T06:40:24.255Z,14.80
2022-10-14T06:42:55.931Z,14.80
2022-10-14T06:45:29.441Z,14.70
2022-10-14T06:47:57.545Z,14.80
2022-10-14T06:50:26.945Z,14.70
2022-10-14T06:52:54.917Z,14.70
2022-10-14T06:55:26.967Z,14.80
2022-10-14T06:57:55.335Z,14.90
2022-10-14T07:00:29.309Z,14.90
2022-10-14T07:03:02.587Z,14.80
2022-10-14T07:05:31.845Z,14.80
2022-10-14T07:08:03.015Z,14.80
2022-10-14T07:10:38.447Z,14.90
2022-10-14T07:13:08.667Z,14.90
2022-10-14T07:15:52.603Z,14.90
2022-10-14T07:18:22.892Z,15.00
2022-10-14T07:20:51.818Z,15.10
2022-10-14T07:23:22.160Z,15.10
2022-10-14T07:25:53.036Z,15.10
2022-10-14T07:28:30.634Z,15.20
2022-10-14T07:31:06.531Z,15.10
2022-10-14T07:36:12.103Z,15.20
2022-10-14T07:38:39.734Z,15.20
2022-10-14T07:41:17.199Z,15.20
2022-10-14T07:43:47.348Z,15.20
2022-10-14T07:46:16.054Z,15.10
2022-10-14T07:48:56.566Z,15.00
2022-10-14T07:51:29.093Z,15.00
2022-10-14T07:54:01.443Z,15.10
2022-10-14T07:56:30.665Z,15.20
2022-10-14T07:59:04.081Z,15.30
2022-10-14T08:01:33.290Z,15.20
2022-10-14T08:04:05.584Z,15.20
2022-10-14T08:06:50.774Z,15.20
2022-10-14T08:09:22.054Z,15.20
2022-10-14T08:11:49.219Z,15.20
2022-10-14T08:14:25.808Z,15.20
2022-10-14T08:17:09.604Z,15.20
2022-10-14T08:19:57.914Z,15.30
2022-10-14T08:22:25.101Z,15.40
2022-10-14T08:24:54.443Z,15.30
2022-10-14T08:27:36.396Z,15.30
2022-10-14T08:30:10.292Z,15.20
2022-10-14T08:32:44.301Z,15.30
2022-10-14T08:35:13.035Z,15.30
2022-10-14T08:37:54.667Z,15.30
2022-10-14T08:40:24.543Z,15.30
2022-10-14T08:43:04.319Z,15.50
2022-10-14T08:45:37.602Z,15.50
2022-10-14T08:48:19.397Z,15.50
2022-10-14T08:51:20.055Z,15.50
2022-10-14T08:53:53.345Z,15.60
2022-10-14T08:56:20.706Z,15.60
2022-10-14T08:58:54.707Z,15.50
2022-10-14T09:01:58.510Z,15.60
2022-10-14T09:04:26.037Z,15.60
2022-10-14T09:06:55.942Z,15.70
2022-10-14T09:09:28.780Z,15.80
2022-10-14T09:12:18.398Z,15.90
2022-10-14T09:14:48.025Z,15.90
2022-10-14T09:17:17.863Z,15.90
2022-10-14T09:20:05.716Z,15.90
2022-10-14T09:22:33.050Z,15.90
2022-10-14T09:25:01.212Z,15.80
2022-10-14T09:27:43.652Z,15.90
2022-10-14T09:30:33.132Z,16.00
2022-10-14T09:33:11.758Z,16.10
2022-10-14T09:35:42.774Z,16.10
2022-10-14T09:38:13.485Z,16.30
2022-10-14T09:40:44.967Z,16.20
2022-10-14T09:43:19.662Z,16.00
2022-10-14T09:45:54.286Z,16.10
2022-10-14T09:48:29.539Z,16.30
2022-10-14T09:50:57.563Z,16.30
2022-10-14T09:53:41.012Z,16.40
2022-10-14T09:56:09.555Z,16.20
2022-10-14T09:58:57.390Z,16.20
2022-10-14T10:01:52.913Z,16.30
2022-10-14T10:04:45.130Z,16.50
2022-10-14T10:07:33.825Z,16.50
2022-10-14T10:10:20.935Z,16.50
2022-10-14T10:12:48.623Z,16.50
2022-10-14T10:15:21.754Z,16.60
2022-10-14T10:17:51.564Z,16.60
2022-10-14T10:20:36.029Z,16.50
2022-10-14T10:23:26.771Z,16.40
2022-10-14T10:26:34.388Z,16.40
2022-10-14T10:29:05.477Z,16.30
2022-10-14T10:31:50.483Z,16.20
2022-10-14T10:34:49.574Z,16.20
2022-10-14T10:37:29.004Z,16.10
2022-10-14T10:40:17.632Z,16.10
2022-10-14T10:43:26.182Z,16.10
2022-10-14T10:46:23.099Z,16.20
2022-10-14T10:49:27.575Z,16.70
2022-10-14T10:52:32.448Z,16.80
2022-10-14T10:55:27.398Z,16.80
2022-10-14T10:58:04.877Z,16.70
2022-10-14T11:00:53.946Z,16.80
2022-10-14T11:04:00.170Z,17.10
2022-10-14T11:10:43.378Z,18.60
2022-10-14T11:13:36.068Z,18.90
2022-10-14T11:16:34.456Z,19.80
2022-10-14T11:19:15.478Z,19.90
2022-10-14T11:22:11.153Z,20.90
2022-10-14T11:24:40.780Z,21.50
2022-10-14T11:27:19.718Z,22.60
2022-10-14T11:30:06.363Z,21.50
2022-10-14T11:33:08.982Z,21.50
2022-10-14T11:36:01.350Z,20.40
2022-10-14T11:38:49.867Z,20.20
2022-10-14T11:41:22.467Z,21.60
2022-10-14T11:44:01.424Z,21.50
2022-10-14T11:46:37.695Z,20.30
2022-10-14T11:49:30.137Z,19.70
2022-10-14T11:52:03.481Z,19.70
2022-10-14T11:55:12.311Z,19.60
2022-10-14T11:57:46.100Z,19.60
2022-10-14T12:00:18.317Z,19.20
2022-10-14T12:03:10.804Z,19.10
2022-10-14T12:06:15.233Z,19.00
2022-10-14T12:08:57.326Z,19.00
2022-10-14T12:11:56.016Z,19.70
2022-10-14T12:14:52.315Z,20.90
2022-10-14T12:17:44.919Z,22.30
2022-10-14T12:20:29.382Z,22.80
2022-10-14T12:22:59.688Z,22.70
2022-10-14T12:25:32.838Z,21.90
2022-10-14T12:28:03.169Z,21.80
2022-10-14T12:30:42.465Z,21.80
2022-10-14T12:33:18.822Z,21.30
2022-10-14T12:36:01.000Z,21.00
2022-10-14T12:39:04.880Z,20.70
2022-10-14T12:41:55.578Z,20.80
2022-10-14T12:44:48.158Z,21.60
2022-10-14T12:47:29.410Z,21.30
2022-10-14T12:49:58.461Z,20.90
2022-10-14T12:52:47.598Z,20.60
2022-10-14T12:55:23.070Z,20.50
2022-10-14T12:58:02.674Z,20.40
2022-10-14T13:00:35.817Z,20.10
2022-10-14T13:03:16.148Z,19.80
2022-10-14T13:05:44.637Z,19.40
2022-10-14T13:08:20.446Z,19.40
2022-10-14T13:11:13.293Z,19.40
2022-10-14T13:13:42.259Z,19.40
2022-10-14T13:16:26.222Z,19.30
2022-10-14T13:19:04.079Z,19.40
2022-10-14T13:21:52.735Z,19.30
2022-10-14T13:24:29.781Z,19.10
2022-10-14T13:27:15.387Z,19.20
2022-10-14T13:30:20.674Z,19.60
2022-10-14T13:32:58.750Z,19.50
2022-10-14T13:35:57.260Z,19.70
2022-10-14T13:38:25.054Z,19.50
2022-10-14T13:41:00.040Z,19.20
2022-10-14T13:43:41.144Z,18.90
2022-10-14T13:46:20.266Z,19.00
2022-10-14T13:48:51.606Z,19.10
2022-10-14T13:51:57.212Z,19.10
2022-10-14T13:54:26.226Z,19.10
2022-10-14T13:57:47.988Z,19.20
2022-10-14T14:00:41.839Z,19.40
2022-10-14T14:03:36.416Z,19.30
2022-10-14T14:06:14.873Z,19.40
2022-10-14T14:09:01.249Z,19.00
2022-10-14T14:11:35.346Z,18.90
2022-10-14T14:14:21.148Z,18.80
2022-10-14T14:17:01.622Z,18.70
2022-10-14T14:19:37.894Z,18.50
2022-10-14T14:22:12.481Z,18.40
2022-10-14T14:24:39.152Z,18.40
2022-10-14T14:27:17.452Z,18.40
2022-10-14T14:29:47.986Z,18.40
2022-10-14T14:32:30.350Z,18.30
2022-10-14T14:34:58.431Z,18.30
2022-10-14T14:37:52.901Z,18.40
2022-10-14T14:40:32.033Z,18.50
2022-10-14T14:43:05.426Z,18.50
2022-10-14T14:45:44.729Z,18.40
2022-10-14T14:48:13.785Z,18.50
2022-10-14T14:50:44.210Z,18.60
2022-10-14T14:53:22.205Z,18.60
2022-10-14T14:56:10.390Z,18.50
2022-10-14T14:59:22.708Z,18.50
2022-10-14T15:01:54.900Z,18.50
2022-10-14T15:04:25.741Z,18.50
2022-10-14T15:07:21.368Z,18.50
2022-10-14T15:09:54.895Z,18.60
2022-10-14T15:12:30.687Z,18.60
2022-10-14T15:14:59.638Z,18.30
2022-10-14T15:17:37.015Z,18.40
2022-10-14T15:20:04.647Z,18.30
2022-10-14T15:22:43.481Z,18.40
2022-10-14T15:25:25.036Z,18.40
2022-10-14T15:27:54.805Z,18.30
2022-10-14T15:30:31.888Z,18.40
2022-10-14T15:33:24.153Z,18.60
2022-10-14T15:36:11.809Z,18.40
2022-10-14T15:38:40.431Z,18.30
2022-10-14T15:41:09.145Z,18.20
2022-10-14T15:43:36.020Z,18.20
2022-10-14T15:46:22.342Z,18.30
2022-10-14T15:48:57.182Z,18.20
2022-10-14T15:51:30.974Z,18.30
2022-10-14T15:54:04.449Z,18.30
2022-10-14T15:56:32.076Z,18.30
2022-10-14T15:58:58.664Z,18.20
2022-10-14T16:01:25.479Z,18.00
2022-10-14T16:03:55.267Z,18.00
2022-10-14T16:06:24.474Z,17.80
2022-10-14T16:08:53.123Z,17.60
2022-10-14T16:11:23.391Z,17.70
2022-10-14T16:13:50.025Z,17.80
2022-10-14T16:16:22.194Z,17.70
2022-10-14T16:18:54.732Z,17.60
2022-10-14T16:21:23.390Z,17.60
2022-10-14T16:23:53.677Z,17.80
2022-10-14T16:26:20.485Z,17.80
2022-10-14T16:28:47.606Z,17.60
2022-10-14T16:31:14.836Z,17.60
2022-10-14T16:33:44.768Z,17.70
2022-10-14T16:36:21.242Z,17.60
2022-10-14T16:38:48.980Z,17.40
2022-10-14T16:41:21.875Z,17.50
2022-10-14T16:43:48.613Z,17.30
2022-10-14T16:46:17.305Z,17.30
2022-10-14T16:48:44.525Z,17.20
2022-10-14T16:51:13.243Z,17.00
2022-10-14T16:53:42.031Z,16.80
2022-10-14T16:56:37.582Z,16.90
2022-10-14T16:59:08.157Z,17.00
2022-10-14T17:01:34.865Z,17.00
2022-10-14T17:04:03.675Z,17.10
2022-10-14T17:06:31.600Z,17.20
2022-10-14T17:09:01.264Z,17.10
2022-10-14T17:11:29.220Z,17.00
2022-10-14T17:13:59.743Z,17.00
2022-10-14T17:16:30.346Z,16.80
2022-10-14T17:18:59.332Z,16.90
2022-10-14T17:21:29.334Z,16.90
2022-10-14T17:24:01.842Z,17.00
2022-10-14T17:26:34.766Z,17.10
2022-10-14T17:29:02.881Z,17.00
2022-10-14T17:31:31.951Z,16.90
2022-10-14T17:34:00.960Z,16.70
2022-10-14T17:36:30.657Z,16.60
2022-10-14T17:38:59.908Z,16.70
2022-10-14T17:41:29.677Z,16.80
2022-10-14T17:43:59.304Z,16.80
2022-10-14T17:46:27.042Z,16.70
2022-10-14T17:48:56.317Z,16.70
2022-10-14T17:51:26.850Z,16.60
2022-10-14T17:54:02.532Z,16.60
2022-10-14T17:56:33.930Z,16.50
2022-10-14T17:59:04.025Z,16.50
2022-10-14T18:01:37.408Z,16.30
2022-10-14T18:04:17.437Z,16.40
2022-10-14T18:06:47.232Z,16.30
2022-10-14T18:09:18.224Z,16.50
2022-10-14T18:14:36.682Z,16.20
2022-10-14T18:17:12.169Z,16.10
2022-10-14T18:19:42.367Z,16.30
2022-10-14T18:22:10.939Z,16.30
2022-10-14T18:24:38.694Z,16.30
2022-10-14T18:27:09.440Z,16.30
2022-10-14T18:29:39.248Z,16.30
2022-10-14T18:32:09.946Z,16.30
2022-10-14T18:34:40.052Z,16.30
2022-10-14T18:37:10.830Z,16.40
2022-10-14T18:39:40.935Z,16.30
2022-10-14T18:42:08.343Z,16.20
2022-10-14T18:44:35.042Z,16.20
2022-10-14T18:47:11.130Z,16.20
2022-10-14T18:49:41.052Z,16.10
2022-10-14T18:52:08.602Z,16.20
2022-10-14T18:54:35.668Z,16.30
2022-10-14T18:57:02.645Z,16.30
2022-10-14T18:59:30.583Z,16.30
2022-10-14T19:01:57.414Z,16.20
2022-10-14T19:04:26.857Z,16.10
2022-10-14T19:07:00.961Z,16.00
2022-10-14T19:09:30.045Z,16.10
2022-10-14T19:11:59.061Z,16.00
2022-10-14T19:14:29.167Z,16.00
2022-10-14T19:16:56.239Z,16.10
2022-10-14T19:19:28.825Z,16.10
2022-10-14T19:21:56.296Z,16.20
2022-10-14T19:24:23.063Z,16.10
2022-10-14T19:26:51.493Z,16.20
2022-10-14T19:29:19.183Z,16.20
2022-10-14T19:31:46.309Z,16.30
2022-10-14T19:34:15.753Z,16.40
2022-10-14T19:36:44.132Z,16.40
2022-10-14T19:39:14.953Z,16.40
2022-10-14T19:41:46.427Z,16.40
2022-10-14T19:44:15.181Z,16.40
2022-10-14T19:46:42.741Z,16.30
2022-10-14T19:49:15.092Z,16.20
2022-10-14T19:51:45.991Z,16.30
2022-10-14T19:54:13.672Z,16.40
2022-10-14T19:56:40.566Z,16.60
2022-10-14T19:59:07.966Z,16.70
2022-10-14T20:01:34.787Z,16.70
2022-10-14T20:04:02.473Z,16.20
2022-10-14T20:06:33.703Z,16.20
2022-10-14T20:09:00.792Z,16.20
2022-10-14T20:11:28.517Z,15.90
2022-10-14T20:13:56.850Z,15.90
2022-10-14T20:16:23.944Z,16.00
2022-10-14T20:18:50.866Z,16.00
2022-10-14T20:21:19.560Z,16.10
2022-10-14T20:23:46.982Z,16.10
2022-10-14T20:26:20.101Z,16.20
2022-10-14T20:28:48.816Z,16.30
2022-10-14T20:31:25.060Z,16.40
2022-10-14T20:33:51.862Z,16.30
2022-10-14T20:36:20.833Z,16.20
2022-10-14T20:38:48.766Z,16.10
2022-10-14T20:41:26.240Z,16.10
2022-10-14T20:43:54.237Z,16.20
2022-10-14T20:46:24.729Z,16.10
2022-10-14T20:48:57.730Z,16.00
2022-10-14T20:51:25.200Z,15.90
2022-10-14T20:54:01.606Z,15.80
2022-10-14T20:56:33.456Z,15.90
2022-10-14T20:59:02.506Z,16.00
2022-10-14T21:01:30.647Z,15.90
2022-10-14T21:04:02.108Z,15.80
2022-10-14T21:06:30.921Z,15.80
2022-10-14T21:08:58.788Z,15.80
2022-10-14T21:11:29.788Z,15.90
2022-10-14T21:13:58.833Z,15.90
2022-10-14T21:16:27.151Z,15.90
2022-10-14T21:19:07.672Z,16.00
2022-10-14T21:21:49.879Z,16.10
2022-10-14T21:24:47.770Z,16.00
2022-10-14T21:27:20.897Z,16.00
2022-10-14T21:32:28.053Z,16.00
2022-10-14T21:34:55.073Z,16.10
2022-10-14T21:37:21.783Z,16.20
2022-10-14T21:39:49.561Z,16.20
2022-10-14T21:42:18.405Z,15.90
2022-10-14T21:44:45.058Z,15.90
2022-10-14T21:47:11.962Z,15.80
2022-10-14T21:49:38.626Z,15.70
2022-10-14T21:52:05.745Z,15.70
2022-10-14T21:54:32.690Z,15.60
2022-10-14T21:57:01.402Z,15.70
2022-10-14T21:59:28.568Z,15.70
2022-10-14T22:01:58.734Z,15.80
2022-10-14T22:04:26.885Z,15.90
2022-10-14T22:06:54.968Z,15.80
2022-10-14T22:09:22.075Z,16.10
2022-10-14T22:11:54.525Z,16.20
2022-10-14T22:14:21.197Z,15.90
2022-10-14T22:16:50.089Z,15.70
2022-10-14T22:19:17.159Z,15.50
2022-10-14T22:21:46.307Z,15.40
2022-10-14T22:24:15.693Z,15.40
2022-10-14T22:26:44.414Z,15.40
2022-10-14T22:29:17.925Z,15.50
2022-10-14T22:31:48.037Z,15.30
2022-10-14T22:34:17.455Z,15.30
2022-10-14T22:36:45.649Z,15.20
2022-10-14T22:39:16.016Z,15.20
2022-10-14T22:41:43.898Z,15.20
2022-10-14T22:44:11.043Z,15.10
2022-10-14T22:46:39.540Z,15.10
2022-10-14T22:49:07.700Z,15.10
2022-10-14T22:51:40.471Z,15.10
2022-10-14T22:54:09.662Z,15.20
2022-10-14T22:56:38.006Z,15.10
2022-10-14T22:59:08.690Z,15.10
2022-10-14T23:01:39.964Z,15.10
2022-10-14T23:04:07.571Z,15.00
2022-10-14T23:06:34.905Z,14.90
2022-10-14T23:09:05.017Z,15.00
2022-10-14T23:11:32.181Z,15.10
2022-10-14T23:14:04.401Z,15.10
2022-10-14T23:16:34.325Z,15.10
2022-10-14T23:19:01.156Z,15.10
2022-10-14T23:21:34.118Z,15.20
2022-10-14T23:24:05.117Z,15.10
2022-10-14T23:26:34.566Z,15.00
2022-10-14T23:29:09.823Z,15.00
2022-10-14T23:31:38.945Z,15.20
2022-10-14T23:34:15.704Z,15.10
2022-10-14T23:36:42.574Z,15.00
2022-10-14T23:39:09.693Z,14.90
2022-10-14T23:41:36.608Z,15.10
2022-10-14T23:44:03.644Z,15.10
2022-10-14T23:46:32.701Z,15.10
2022-10-14T23:49:07.575Z,15.00
2022-10-14T23:51:49.325Z,14.90
2022-10-14T23:54:18.470Z,14.80
2022-10-14T23:56:45.528Z,14.90
2022-10-14T23:59:13.393Z,14.90
